sensor_id;sensor_type;location;lat;lon;timestamp;P1;durP1;ratioP1;P2;durP2;ratioP2
58069;SDS011;43863;52.256;21.048;2022-07-12T00:01:57;10.93;;;7.00;;
58069;SDS011;43863;52.256;21.048;2022-07-12T00:04:24;19.08;;;7.65;;
58069;SDS011;43863;52.256;21.048;2022-07-12T00:06:52;15.00;;;7.35;;
58069;SDS011;43863;52.256;21.048;2022-07-12T00:09:20;13.85;;;7.35;;
58069;SDS011;43863;52.256;21.048;2022-07-12T00:11:48;10.52;;;7.13;;
58069;SDS011;43863;52.256;21.048;2022-07-12T00:14:20;13.93;;;7.10;;
58069;SDS011;43863;52.256;21.048;2022-07-12T00:16:49;10.43;;;6.82;;
58069;SDS011;43863;52.256;21.048;2022-07-12T00:19:17;11.48;;;7.25;;
58069;SDS011;43863;52.256;21.048;2022-07-12T00:21:45;12.65;;;6.85;;
58069;SDS011;43863;52.256;21.048;2022-07-12T00:24:13;13.23;;;7.03;;
58069;SDS011;43863;52.256;21.048;2022-07-12T00:26:41;12.75;;;7.25;;
58069;SDS011;43863;52.256;21.048;2022-07-12T00:29:08;12.00;;;7.03;;
58069;SDS011;43863;52.256;21.048;2022-07-12T00:31:37;11.45;;;6.90;;
58069;SDS011;43863;52.256;21.048;2022-07-12T00:34:05;11.43;;;7.07;;
58069;SDS011;43863;52.256;21.048;2022-07-12T00:36:33;12.20;;;7.30;;
58069;SDS011;43863;52.256;21.048;2022-07-12T00:39:00;17.10;;;7.55;;
58069;SDS011;43863;52.256;21.048;2022-07-12T00:41:28;12.80;;;7.40;;
58069;SDS011;43863;52.256;21.048;2022-07-12T00:43:55;13.35;;;7.65;;
58069;SDS011;43863;52.256;21.048;2022-07-12T00:46:23;14.05;;;7.50;;
58069;SDS011;43863;52.256;21.048;2022-07-12T00:48:52;15.63;;;7.55;;
58069;SDS011;43863;52.256;21.048;2022-07-12T00:51:21;14.80;;;7.93;;
58069;SDS011;43863;52.256;21.048;2022-07-12T00:53:49;16.35;;;8.18;;
58069;SDS011;43863;52.256;21.048;2022-07-12T00:56:18;13.43;;;7.50;;
58069;SDS011;43863;52.256;21.048;2022-07-12T00:58:46;12.80;;;7.88;;
58069;SDS011;43863;52.256;21.048;2022-07-12T01:01:14;16.98;;;7.68;;
58069;SDS011;43863;52.256;21.048;2022-07-12T01:03:42;17.10;;;8.40;;
58069;SDS011;43863;52.256;21.048;2022-07-12T01:06:10;16.27;;;8.98;;
58069;SDS011;43863;52.256;21.048;2022-07-12T01:08:38;14.18;;;7.90;;
58069;SDS011;43863;52.256;21.048;2022-07-12T01:11:07;15.32;;;9.30;;
58069;SDS011;43863;52.256;21.048;2022-07-12T01:13:35;16.25;;;8.82;;
58069;SDS011;43863;52.256;21.048;2022-07-12T01:16:05;18.00;;;9.25;;
58069;SDS011;43863;52.256;21.048;2022-07-12T01:18:34;15.50;;;9.23;;
58069;SDS011;43863;52.256;21.048;2022-07-12T01:21:03;15.60;;;8.90;;
58069;SDS011;43863;52.256;21.048;2022-07-12T01:23:33;17.02;;;9.48;;
58069;SDS011;43863;52.256;21.048;2022-07-12T01:26:02;16.40;;;9.38;;
58069;SDS011;43863;52.256;21.048;2022-07-12T01:28:30;21.45;;;9.95;;
58069;SDS011;43863;52.256;21.048;2022-07-12T01:30:58;18.92;;;10.15;;
58069;SDS011;43863;52.256;21.048;2022-07-12T01:33:26;17.70;;;9.88;;
58069;SDS011;43863;52.256;21.048;2022-07-12T01:35:54;18.50;;;10.45;;
58069;SDS011;43863;52.256;21.048;2022-07-12T01:38:22;22.10;;;10.20;;
58069;SDS011;43863;52.256;21.048;2022-07-12T01:40:50;17.63;;;9.70;;
58069;SDS011;43863;52.256;21.048;2022-07-12T01:43:18;17.52;;;9.55;;
58069;SDS011;43863;52.256;21.048;2022-07-12T01:45:45;19.52;;;10.13;;
58069;SDS011;43863;52.256;21.048;2022-07-12T01:48:13;19.25;;;10.57;;
58069;SDS011;43863;52.256;21.048;2022-07-12T01:50:42;17.40;;;10.32;;
58069;SDS011;43863;52.256;21.048;2022-07-12T01:53:10;20.58;;;10.77;;
58069;SDS011;43863;52.256;21.048;2022-07-12T01:55:39;19.55;;;10.50;;
58069;SDS011;43863;52.256;21.048;2022-07-12T01:58:07;17.80;;;10.40;;
58069;SDS011;43863;52.256;21.048;2022-07-12T02:00:35;22.13;;;10.95;;
58069;SDS011;43863;52.256;21.048;2022-07-12T02:03:02;19.77;;;10.63;;
58069;SDS011;43863;52.256;21.048;2022-07-12T02:05:30;19.23;;;10.80;;
58069;SDS011;43863;52.256;21.048;2022-07-12T02:07:58;20.40;;;12.10;;
58069;SDS011;43863;52.256;21.048;2022-07-12T02:10:26;19.40;;;11.00;;
58069;SDS011;43863;52.256;21.048;2022-07-12T02:12:55;19.25;;;10.27;;
58069;SDS011;43863;52.256;21.048;2022-07-12T02:15:23;25.55;;;11.25;;
58069;SDS011;43863;52.256;21.048;2022-07-12T02:17:51;25.15;;;10.82;;
58069;SDS011;43863;52.256;21.048;2022-07-12T02:20:19;21.52;;;11.50;;
58069;SDS011;43863;52.256;21.048;2022-07-12T02:22:47;21.55;;;11.00;;
58069;SDS011;43863;52.256;21.048;2022-07-12T02:25:15;20.98;;;11.50;;
58069;SDS011;43863;52.256;21.048;2022-07-12T02:27:44;20.35;;;11.18;;
58069;SDS011;43863;52.256;21.048;2022-07-12T02:30:11;21.70;;;11.15;;
58069;SDS011;43863;52.256;21.048;2022-07-12T02:32:39;22.90;;;10.32;;
58069;SDS011;43863;52.256;21.048;2022-07-12T02:35:07;22.98;;;11.43;;
58069;SDS011;43863;52.256;21.048;2022-07-12T02:37:35;23.67;;;12.13;;
58069;SDS011;43863;52.256;21.048;2022-07-12T02:40:03;23.23;;;11.57;;
58069;SDS011;43863;52.256;21.048;2022-07-12T02:42:50;21.55;;;11.32;;
58069;SDS011;43863;52.256;21.048;2022-07-12T02:45:18;20.70;;;11.00;;
58069;SDS011;43863;52.256;21.048;2022-07-12T02:47:46;23.50;;;11.10;;
58069;SDS011;43863;52.256;21.048;2022-07-12T02:50:14;20.35;;;10.73;;
58069;SDS011;43863;52.256;21.048;2022-07-12T02:52:41;23.10;;;11.15;;
58069;SDS011;43863;52.256;21.048;2022-07-12T02:55:09;20.80;;;10.30;;
58069;SDS011;43863;52.256;21.048;2022-07-12T02:57:37;20.02;;;11.30;;
58069;SDS011;43863;52.256;21.048;2022-07-12T03:00:05;24.85;;;11.25;;
58069;SDS011;43863;52.256;21.048;2022-07-12T03:02:34;24.90;;;11.52;;
58069;SDS011;43863;52.256;21.048;2022-07-12T03:05:02;23.10;;;10.82;;
58069;SDS011;43863;52.256;21.048;2022-07-12T03:07:30;24.20;;;12.13;;
58069;SDS011;43863;52.256;21.048;2022-07-12T03:09:58;23.00;;;11.95;;
58069;SDS011;43863;52.256;21.048;2022-07-12T03:12:26;23.50;;;11.70;;
58069;SDS011;43863;52.256;21.048;2022-07-12T03:14:53;29.42;;;15.38;;
58069;SDS011;43863;52.256;21.048;2022-07-12T03:17:21;25.10;;;12.05;;
58069;SDS011;43863;52.256;21.048;2022-07-12T03:19:50;23.80;;;11.43;;
58069;SDS011;43863;52.256;21.048;2022-07-12T03:22:17;24.30;;;11.85;;
58069;SDS011;43863;52.256;21.048;2022-07-12T03:24:45;25.10;;;11.88;;
58069;SDS011;43863;52.256;21.048;2022-07-12T03:27:13;26.92;;;13.30;;
58069;SDS011;43863;52.256;21.048;2022-07-12T03:29:41;25.15;;;12.38;;
58069;SDS011;43863;52.256;21.048;2022-07-12T03:32:08;25.73;;;12.07;;
58069;SDS011;43863;52.256;21.048;2022-07-12T03:34:37;24.70;;;11.48;;
58069;SDS011;43863;52.256;21.048;2022-07-12T03:37:05;21.25;;;13.20;;
58069;SDS011;43863;52.256;21.048;2022-07-12T03:39:32;23.73;;;11.43;;
58069;SDS011;43863;52.256;21.048;2022-07-12T03:42:01;25.33;;;12.13;;
58069;SDS011;43863;52.256;21.048;2022-07-12T03:44:29;24.38;;;11.40;;
58069;SDS011;43863;52.256;21.048;2022-07-12T03:46:57;24.33;;;12.13;;
58069;SDS011;43863;52.256;21.048;2022-07-12T03:49:25;24.73;;;12.63;;
58069;SDS011;43863;52.256;21.048;2022-07-12T03:51:54;25.02;;;12.30;;
58069;SDS011;43863;52.256;21.048;2022-07-12T03:54:22;29.08;;;12.65;;
58069;SDS011;43863;52.256;21.048;2022-07-12T03:56:50;23.27;;;12.30;;
58069;SDS011;43863;52.256;21.048;2022-07-12T03:59:37;21.13;;;11.70;;
58069;SDS011;43863;52.256;21.048;2022-07-12T04:02:11;26.17;;;12.68;;
58069;SDS011;43863;52.256;21.048;2022-07-12T04:04:39;23.42;;;12.52;;
58069;SDS011;43863;52.256;21.048;2022-07-12T04:07:09;24.80;;;12.20;;
58069;SDS011;43863;52.256;21.048;2022-07-12T04:09:37;26.80;;;12.75;;
58069;SDS011;43863;52.256;21.048;2022-07-12T04:12:05;26.35;;;12.02;;
58069;SDS011;43863;52.256;21.048;2022-07-12T04:14:32;26.02;;;11.48;;
58069;SDS011;43863;52.256;21.048;2022-07-12T04:17:00;25.30;;;10.95;;
58069;SDS011;43863;52.256;21.048;2022-07-12T04:19:29;24.48;;;10.70;;
58069;SDS011;43863;52.256;21.048;2022-07-12T04:21:58;21.67;;;10.70;;
58069;SDS011;43863;52.256;21.048;2022-07-12T04:24:26;21.35;;;10.98;;
58069;SDS011;43863;52.256;21.048;2022-07-12T04:26:54;22.13;;;11.07;;
58069;SDS011;43863;52.256;21.048;2022-07-12T04:29:22;21.70;;;11.00;;
58069;SDS011;43863;52.256;21.048;2022-07-12T04:31:49;23.45;;;11.80;;
58069;SDS011;43863;52.256;21.048;2022-07-12T04:34:17;27.00;;;11.57;;
58069;SDS011;43863;52.256;21.048;2022-07-12T04:36:45;23.25;;;10.90;;
58069;SDS011;43863;52.256;21.048;2022-07-12T04:39:13;22.95;;;11.00;;
58069;SDS011;43863;52.256;21.048;2022-07-12T04:41:41;24.48;;;11.85;;
58069;SDS011;43863;52.256;21.048;2022-07-12T04:44:09;27.73;;;12.13;;
58069;SDS011;43863;52.256;21.048;2022-07-12T04:46:37;22.67;;;13.15;;
58069;SDS011;43863;52.256;21.048;2022-07-12T04:49:04;24.02;;;12.20;;
58069;SDS011;43863;52.256;21.048;2022-07-12T04:51:33;24.00;;;13.25;;
58069;SDS011;43863;52.256;21.048;2022-07-12T04:54:01;25.90;;;13.02;;
58069;SDS011;43863;52.256;21.048;2022-07-12T04:56:29;27.73;;;13.80;;
58069;SDS011;43863;52.256;21.048;2022-07-12T04:58:57;24.50;;;12.77;;
58069;SDS011;43863;52.256;21.048;2022-07-12T05:01:30;22.87;;;13.43;;
58069;SDS011;43863;52.256;21.048;2022-07-12T05:03:58;28.98;;;13.18;;
58069;SDS011;43863;52.256;21.048;2022-07-12T05:06:28;30.30;;;13.63;;
58069;SDS011;43863;52.256;21.048;2022-07-12T05:08:56;27.23;;;13.57;;
58069;SDS011;43863;52.256;21.048;2022-07-12T05:11:24;28.10;;;14.25;;
58069;SDS011;43863;52.256;21.048;2022-07-12T05:13:51;27.00;;;13.63;;
58069;SDS011;43863;52.256;21.048;2022-07-12T05:16:19;27.60;;;14.02;;
58069;SDS011;43863;52.256;21.048;2022-07-12T05:18:47;30.10;;;12.75;;
58069;SDS011;43863;52.256;21.048;2022-07-12T05:21:16;27.83;;;13.73;;
58069;SDS011;43863;52.256;21.048;2022-07-12T05:23:44;27.02;;;12.88;;
58069;SDS011;43863;52.256;21.048;2022-07-12T05:26:12;26.35;;;14.27;;
58069;SDS011;43863;52.256;21.048;2022-07-12T05:28:43;24.80;;;12.30;;
58069;SDS011;43863;52.256;21.048;2022-07-12T05:31:11;25.42;;;12.60;;
58069;SDS011;43863;52.256;21.048;2022-07-12T05:33:39;25.95;;;12.25;;
58069;SDS011;43863;52.256;21.048;2022-07-12T05:36:07;25.52;;;11.52;;
58069;SDS011;43863;52.256;21.048;2022-07-12T05:38:35;22.15;;;12.48;;
58069;SDS011;43863;52.256;21.048;2022-07-12T05:41:03;24.23;;;12.02;;
58069;SDS011;43863;52.256;21.048;2022-07-12T05:43:31;20.52;;;10.75;;
58069;SDS011;43863;52.256;21.048;2022-07-12T05:45:59;21.73;;;11.50;;
58069;SDS011;43863;52.256;21.048;2022-07-12T05:48:27;27.67;;;11.35;;
58069;SDS011;43863;52.256;21.048;2022-07-12T05:50:55;20.77;;;11.05;;
58069;SDS011;43863;52.256;21.048;2022-07-12T05:53:22;20.90;;;11.35;;
58069;SDS011;43863;52.256;21.048;2022-07-12T05:55:50;20.23;;;10.75;;
58069;SDS011;43863;52.256;21.048;2022-07-12T05:58:20;23.95;;;10.98;;
58069;SDS011;43863;52.256;21.048;2022-07-12T06:00:48;23.25;;;10.52;;
58069;SDS011;43863;52.256;21.048;2022-07-12T06:03:16;18.55;;;10.60;;
58069;SDS011;43863;52.256;21.048;2022-07-12T06:05:44;22.35;;;10.60;;
58069;SDS011;43863;52.256;21.048;2022-07-12T06:08:12;23.02;;;11.55;;
58069;SDS011;43863;52.256;21.048;2022-07-12T06:10:40;19.42;;;10.02;;
58069;SDS011;43863;52.256;21.048;2022-07-12T06:13:08;28.33;;;11.00;;
58069;SDS011;43863;52.256;21.048;2022-07-12T06:15:37;23.50;;;11.27;;
58069;SDS011;43863;52.256;21.048;2022-07-12T06:18:05;21.27;;;10.20;;
58069;SDS011;43863;52.256;21.048;2022-07-12T06:20:33;18.42;;;9.57;;
58069;SDS011;43863;52.256;21.048;2022-07-12T06:23:01;18.25;;;10.32;;
58069;SDS011;43863;52.256;21.048;2022-07-12T06:25:32;21.75;;;9.50;;
58069;SDS011;43863;52.256;21.048;2022-07-12T06:30:38;16.23;;;9.05;;
58069;SDS011;43863;52.256;21.048;2022-07-12T06:33:05;19.33;;;8.27;;
58069;SDS011;43863;52.256;21.048;2022-07-12T06:35:34;13.43;;;7.72;;
58069;SDS011;43863;52.256;21.048;2022-07-12T06:38:03;13.63;;;8.18;;
58069;SDS011;43863;52.256;21.048;2022-07-12T06:40:31;15.35;;;7.65;;
58069;SDS011;43863;52.256;21.048;2022-07-12T06:42:59;14.57;;;8.20;;
58069;SDS011;43863;52.256;21.048;2022-07-12T06:45:27;13.23;;;7.18;;
58069;SDS011;43863;52.256;21.048;2022-07-12T06:47:55;13.38;;;7.90;;
58069;SDS011;43863;52.256;21.048;2022-07-12T06:50:23;14.95;;;7.22;;
58069;SDS011;43863;52.256;21.048;2022-07-12T06:52:51;17.00;;;7.60;;
58069;SDS011;43863;52.256;21.048;2022-07-12T06:55:23;11.25;;;7.25;;
58069;SDS011;43863;52.256;21.048;2022-07-12T06:57:50;12.38;;;6.57;;
58069;SDS011;43863;52.256;21.048;2022-07-12T07:00:18;19.40;;;7.07;;
58069;SDS011;43863;52.256;21.048;2022-07-12T07:02:46;11.73;;;6.65;;
58069;SDS011;43863;52.256;21.048;2022-07-12T07:05:14;12.77;;;6.32;;
58069;SDS011;43863;52.256;21.048;2022-07-12T07:07:53;12.02;;;6.88;;
58069;SDS011;43863;52.256;21.048;2022-07-12T07:10:22;13.98;;;6.75;;
58069;SDS011;43863;52.256;21.048;2022-07-12T07:12:50;13.93;;;6.35;;
58069;SDS011;43863;52.256;21.048;2022-07-12T07:15:19;17.45;;;6.68;;
58069;SDS011;43863;52.256;21.048;2022-07-12T07:17:46;13.13;;;6.35;;
58069;SDS011;43863;52.256;21.048;2022-07-12T07:20:14;10.90;;;6.30;;
58069;SDS011;43863;52.256;21.048;2022-07-12T07:22:42;16.17;;;6.45;;
58069;SDS011;43863;52.256;21.048;2022-07-12T07:25:10;11.65;;;5.80;;
58069;SDS011;43863;52.256;21.048;2022-07-12T07:27:38;12.98;;;5.72;;
58069;SDS011;43863;52.256;21.048;2022-07-12T07:30:06;10.98;;;5.70;;
58069;SDS011;43863;52.256;21.048;2022-07-12T07:32:53;10.05;;;5.40;;
58069;SDS011;43863;52.256;21.048;2022-07-12T07:35:23;10.38;;;5.85;;
58069;SDS011;43863;52.256;21.048;2022-07-12T07:37:52;7.43;;;4.95;;
58069;SDS011;43863;52.256;21.048;2022-07-12T07:40:20;11.15;;;4.85;;
58069;SDS011;43863;52.256;21.048;2022-07-12T07:42:48;7.13;;;4.75;;
58069;SDS011;43863;52.256;21.048;2022-07-12T07:45:17;15.70;;;6.57;;
58069;SDS011;43863;52.256;21.048;2022-07-12T07:47:46;5.43;;;4.30;;
58069;SDS011;43863;52.256;21.048;2022-07-12T07:50:37;11.90;;;5.15;;
58069;SDS011;43863;52.256;21.048;2022-07-12T07:56:01;19.25;;;7.50;;
58069;SDS011;43863;52.256;21.048;2022-07-12T07:58:29;10.35;;;5.00;;
58069;SDS011;43863;52.256;21.048;2022-07-12T08:01:01;11.68;;;5.47;;
58069;SDS011;43863;52.256;21.048;2022-07-12T08:03:30;15.05;;;4.78;;
58069;SDS011;43863;52.256;21.048;2022-07-12T08:05:58;12.82;;;5.32;;
58069;SDS011;43863;52.256;21.048;2022-07-12T08:08:28;7.70;;;4.90;;
58069;SDS011;43863;52.256;21.048;2022-07-12T08:11:19;8.13;;;4.80;;
58069;SDS011;43863;52.256;21.048;2022-07-12T08:13:50;9.65;;;6.03;;
58069;SDS011;43863;52.256;21.048;2022-07-12T08:16:18;10.60;;;5.78;;
58069;SDS011;43863;52.256;21.048;2022-07-12T08:18:50;8.73;;;5.00;;
58069;SDS011;43863;52.256;21.048;2022-07-12T08:21:18;17.58;;;8.25;;
58069;SDS011;43863;52.256;21.048;2022-07-12T08:23:46;10.90;;;5.80;;
58069;SDS011;43863;52.256;21.048;2022-07-12T08:26:15;9.32;;;5.65;;
58069;SDS011;43863;52.256;21.048;2022-07-12T08:28:50;12.32;;;5.80;;
58069;SDS011;43863;52.256;21.048;2022-07-12T08:31:19;14.40;;;5.93;;
58069;SDS011;43863;52.256;21.048;2022-07-12T08:33:49;15.43;;;5.75;;
58069;SDS011;43863;52.256;21.048;2022-07-12T08:36:19;12.10;;;5.47;;
58069;SDS011;43863;52.256;21.048;2022-07-12T08:41:40;6.10;;;5.45;;
58069;SDS011;43863;52.256;21.048;2022-07-12T08:44:08;10.30;;;5.97;;
58069;SDS011;43863;52.256;21.048;2022-07-12T08:46:42;12.43;;;6.40;;
58069;SDS011;43863;52.256;21.048;2022-07-12T08:49:09;13.13;;;5.85;;
58069;SDS011;43863;52.256;21.048;2022-07-12T08:51:37;13.43;;;6.15;;
58069;SDS011;43863;52.256;21.048;2022-07-12T08:54:10;11.60;;;5.75;;
58069;SDS011;43863;52.256;21.048;2022-07-12T08:56:40;9.85;;;5.90;;
58069;SDS011;43863;52.256;21.048;2022-07-12T08:59:12;11.43;;;5.80;;
58069;SDS011;43863;52.256;21.048;2022-07-12T09:01:41;11.15;;;7.07;;
58069;SDS011;43863;52.256;21.048;2022-07-12T09:04:14;10.35;;;5.55;;
58069;SDS011;43863;52.256;21.048;2022-07-12T09:09:44;5.68;;;4.45;;
58069;SDS011;43863;52.256;21.048;2022-07-12T09:12:22;9.65;;;5.40;;
58069;SDS011;43863;52.256;21.048;2022-07-12T09:14:53;13.55;;;5.45;;
58069;SDS011;43863;52.256;21.048;2022-07-12T09:19:58;13.98;;;5.85;;
58069;SDS011;43863;52.256;21.048;2022-07-12T09:22:26;10.95;;;5.85;;
58069;SDS011;43863;52.256;21.048;2022-07-12T09:24:54;13.95;;;5.38;;
58069;SDS011;43863;52.256;21.048;2022-07-12T09:27:25;8.93;;;4.78;;
58069;SDS011;43863;52.256;21.048;2022-07-12T09:29:53;9.48;;;5.32;;
58069;SDS011;43863;52.256;21.048;2022-07-12T09:32:26;9.18;;;4.97;;
58069;SDS011;43863;52.256;21.048;2022-07-12T09:35:12;11.15;;;5.85;;
58069;SDS011;43863;52.256;21.048;2022-07-12T09:38:08;10.25;;;4.80;;
58069;SDS011;43863;52.256;21.048;2022-07-12T09:40:40;11.13;;;5.43;;
58069;SDS011;43863;52.256;21.048;2022-07-12T09:43:08;12.48;;;6.78;;
58069;SDS011;43863;52.256;21.048;2022-07-12T09:45:39;12.38;;;5.82;;
58069;SDS011;43863;52.256;21.048;2022-07-12T09:48:08;11.57;;;6.10;;
58069;SDS011;43863;52.256;21.048;2022-07-12T09:50:38;11.87;;;6.03;;
58069;SDS011;43863;52.256;21.048;2022-07-12T09:53:07;12.98;;;6.45;;
58069;SDS011;43863;52.256;21.048;2022-07-12T09:55:38;18.30;;;10.02;;
58069;SDS011;43863;52.256;21.048;2022-07-12T10:00:39;8.98;;;5.20;;
58069;SDS011;43863;52.256;21.048;2022-07-12T10:03:07;10.95;;;5.13;;
58069;SDS011;43863;52.256;21.048;2022-07-12T10:05:36;7.47;;;4.65;;
58069;SDS011;43863;52.256;21.048;2022-07-12T10:08:07;10.20;;;5.30;;
58069;SDS011;43863;52.256;21.048;2022-07-12T10:10:36;8.02;;;4.65;;
58069;SDS011;43863;52.256;21.048;2022-07-12T10:13:04;10.80;;;4.90;;
58069;SDS011;43863;52.256;21.048;2022-07-12T10:15:32;11.15;;;4.95;;
58069;SDS011;43863;52.256;21.048;2022-07-12T10:18:02;7.05;;;4.85;;
58069;SDS011;43863;52.256;21.048;2022-07-12T10:20:31;5.87;;;5.13;;
58069;SDS011;43863;52.256;21.048;2022-07-12T10:31:33;9.75;;;4.82;;
58069;SDS011;43863;52.256;21.048;2022-07-12T10:34:19;9.05;;;4.85;;
58069;SDS011;43863;52.256;21.048;2022-07-12T10:39:42;22.75;;;11.52;;
58069;SDS011;43863;52.256;21.048;2022-07-12T10:43:12;12.05;;;6.78;;
58069;SDS011;43863;52.256;21.048;2022-07-12T10:45:39;10.15;;;5.28;;
58069;SDS011;43863;52.256;21.048;2022-07-12T10:48:18;9.65;;;5.35;;
58069;SDS011;43863;52.256;21.048;2022-07-12T10:58:44;6.70;;;4.30;;
58069;SDS011;43863;52.256;21.048;2022-07-12T11:01:15;14.18;;;6.82;;
58069;SDS011;43863;52.256;21.048;2022-07-12T11:03:50;6.70;;;3.78;;
58069;SDS011;43863;52.256;21.048;2022-07-12T11:06:20;10.52;;;5.25;;
58069;SDS011;43863;52.256;21.048;2022-07-12T11:11:18;10.80;;;4.63;;
58069;SDS011;43863;52.256;21.048;2022-07-12T11:13:47;12.48;;;4.82;;
58069;SDS011;43863;52.256;21.048;2022-07-12T11:16:15;11.90;;;5.03;;
58069;SDS011;43863;52.256;21.048;2022-07-12T11:18:45;8.32;;;4.43;;
58069;SDS011;43863;52.256;21.048;2022-07-12T11:21:14;16.33;;;8.70;;
58069;SDS011;43863;52.256;21.048;2022-07-12T11:23:42;11.02;;;5.15;;
58069;SDS011;43863;52.256;21.048;2022-07-12T11:26:11;47.30;;;23.20;;
58069;SDS011;43863;52.256;21.048;2022-07-12T11:28:41;11.05;;;4.85;;
58069;SDS011;43863;52.256;21.048;2022-07-12T11:31:11;15.80;;;6.10;;
58069;SDS011;43863;52.256;21.048;2022-07-12T11:33:42;47.00;;;20.75;;
58069;SDS011;43863;52.256;21.048;2022-07-12T11:36:12;41.25;;;18.15;;
58069;SDS011;43863;52.256;21.048;2022-07-12T11:38:42;14.10;;;4.97;;
58069;SDS011;43863;52.256;21.048;2022-07-12T11:41:15;13.95;;;4.55;;
58069;SDS011;43863;52.256;21.048;2022-07-12T11:43:43;13.70;;;6.53;;
58069;SDS011;43863;52.256;21.048;2022-07-12T11:46:11;9.85;;;5.32;;
58069;SDS011;43863;52.256;21.048;2022-07-12T11:48:40;10.23;;;5.13;;
58069;SDS011;43863;52.256;21.048;2022-07-12T11:51:18;7.03;;;3.00;;
58069;SDS011;43863;52.256;21.048;2022-07-12T11:53:52;8.52;;;3.90;;
58069;SDS011;43863;52.256;21.048;2022-07-12T11:56:28;9.10;;;4.13;;
58069;SDS011;43863;52.256;21.048;2022-07-12T11:58:58;9.98;;;3.85;;
58069;SDS011;43863;52.256;21.048;2022-07-12T12:01:29;15.20;;;4.63;;
58069;SDS011;43863;52.256;21.048;2022-07-12T12:03:57;9.00;;;3.70;;
58069;SDS011;43863;52.256;21.048;2022-07-12T12:06:25;13.35;;;4.80;;
58069;SDS011;43863;52.256;21.048;2022-07-12T12:08:52;12.40;;;5.55;;
58069;SDS011;43863;52.256;21.048;2022-07-12T12:11:26;11.50;;;4.72;;
58069;SDS011;43863;52.256;21.048;2022-07-12T12:13:57;8.30;;;3.20;;
58069;SDS011;43863;52.256;21.048;2022-07-12T12:16:25;11.82;;;4.28;;
58069;SDS011;43863;52.256;21.048;2022-07-12T12:18:54;11.85;;;3.13;;
58069;SDS011;43863;52.256;21.048;2022-07-12T12:21:28;4.85;;;3.03;;
58069;SDS011;43863;52.256;21.048;2022-07-12T12:24:08;8.98;;;3.75;;
58069;SDS011;43863;52.256;21.048;2022-07-12T12:26:38;16.00;;;4.68;;
58069;SDS011;43863;52.256;21.048;2022-07-12T12:29:06;9.52;;;3.53;;
58069;SDS011;43863;52.256;21.048;2022-07-12T12:31:33;12.73;;;5.68;;
58069;SDS011;43863;52.256;21.048;2022-07-12T12:34:06;9.35;;;3.50;;
58069;SDS011;43863;52.256;21.048;2022-07-12T12:36:41;10.35;;;3.65;;
58069;SDS011;43863;52.256;21.048;2022-07-12T12:39:09;9.57;;;3.83;;
58069;SDS011;43863;52.256;21.048;2022-07-12T12:41:39;13.57;;;4.53;;
58069;SDS011;43863;52.256;21.048;2022-07-12T12:47:28;6.50;;;3.42;;
58069;SDS011;43863;52.256;21.048;2022-07-12T12:49:59;9.43;;;3.90;;
58069;SDS011;43863;52.256;21.048;2022-07-12T12:52:29;9.43;;;3.60;;
58069;SDS011;43863;52.256;21.048;2022-07-12T12:54:57;7.30;;;3.35;;
58069;SDS011;43863;52.256;21.048;2022-07-12T12:57:27;6.93;;;2.97;;
58069;SDS011;43863;52.256;21.048;2022-07-12T12:59:56;7.15;;;2.95;;
58069;SDS011;43863;52.256;21.048;2022-07-12T13:02:24;6.35;;;2.60;;
58069;SDS011;43863;52.256;21.048;2022-07-12T13:07:47;8.02;;;3.65;;
58069;SDS011;43863;52.256;21.048;2022-07-12T13:14:55;14.10;;;3.90;;
58069;SDS011;43863;52.256;21.048;2022-07-12T13:17:23;10.98;;;3.58;;
58069;SDS011;43863;52.256;21.048;2022-07-12T13:19:51;12.82;;;4.20;;
58069;SDS011;43863;52.256;21.048;2022-07-12T13:24:50;11.55;;;3.33;;
58069;SDS011;43863;52.256;21.048;2022-07-12T13:27:18;15.43;;;5.65;;
58069;SDS011;43863;52.256;21.048;2022-07-12T13:29:46;27.70;;;12.35;;
58069;SDS011;43863;52.256;21.048;2022-07-12T13:32:14;9.45;;;3.92;;
58069;SDS011;43863;52.256;21.048;2022-07-12T13:34:42;13.45;;;5.72;;
58069;SDS011;43863;52.256;21.048;2022-07-12T13:37:10;10.63;;;4.20;;
58069;SDS011;43863;52.256;21.048;2022-07-12T13:39:38;11.02;;;4.22;;
58069;SDS011;43863;52.256;21.048;2022-07-12T13:42:25;7.88;;;3.40;;
58069;SDS011;43863;52.256;21.048;2022-07-12T13:44:53;11.80;;;4.53;;
58069;SDS011;43863;52.256;21.048;2022-07-12T13:47:21;9.52;;;3.60;;
58069;SDS011;43863;52.256;21.048;2022-07-12T13:55:36;12.57;;;4.93;;
58069;SDS011;43863;52.256;21.048;2022-07-12T14:00:58;12.75;;;5.75;;
58069;SDS011;43863;52.256;21.048;2022-07-12T14:03:26;10.10;;;4.93;;
58069;SDS011;43863;52.256;21.048;2022-07-12T14:05:54;8.68;;;4.30;;
58069;SDS011;43863;52.256;21.048;2022-07-12T14:08:22;7.30;;;3.33;;
58069;SDS011;43863;52.256;21.048;2022-07-12T14:10:50;7.93;;;4.22;;
58069;SDS011;43863;52.256;21.048;2022-07-12T14:13:18;11.98;;;4.38;;
58069;SDS011;43863;52.256;21.048;2022-07-12T14:18:40;18.77;;;7.25;;
58069;SDS011;43863;52.256;21.048;2022-07-12T14:21:08;9.82;;;4.43;;
58069;SDS011;43863;52.256;21.048;2022-07-12T14:23:38;21.52;;;7.43;;
58069;SDS011;43863;52.256;21.048;2022-07-12T14:26:09;12.18;;;5.22;;
58069;SDS011;43863;52.256;21.048;2022-07-12T14:31:09;9.18;;;3.88;;
58069;SDS011;43863;52.256;21.048;2022-07-12T14:33:37;11.52;;;4.90;;
58069;SDS011;43863;52.256;21.048;2022-07-12T14:42:22;12.18;;;4.32;;
58069;SDS011;43863;52.256;21.048;2022-07-12T14:47:43;11.68;;;4.97;;
58069;SDS011;43863;52.256;21.048;2022-07-12T14:50:11;8.45;;;4.50;;
58069;SDS011;43863;52.256;21.048;2022-07-12T14:52:39;8.30;;;3.67;;
58069;SDS011;43863;52.256;21.048;2022-07-12T14:55:07;13.65;;;6.15;;
58069;SDS011;43863;52.256;21.048;2022-07-12T15:00:32;7.25;;;3.38;;
58069;SDS011;43863;52.256;21.048;2022-07-12T15:03:01;11.15;;;4.82;;
58069;SDS011;43863;52.256;21.048;2022-07-12T15:08:23;7.78;;;3.70;;
58069;SDS011;43863;52.256;21.048;2022-07-12T15:10:51;7.47;;;3.00;;
58069;SDS011;43863;52.256;21.048;2022-07-12T15:13:19;14.55;;;5.45;;
58069;SDS011;43863;52.256;21.048;2022-07-12T15:15:46;14.68;;;5.85;;
58069;SDS011;43863;52.256;21.048;2022-07-12T15:18:14;19.02;;;8.18;;
58069;SDS011;43863;52.256;21.048;2022-07-12T15:26:31;11.55;;;3.45;;
58069;SDS011;43863;52.256;21.048;2022-07-12T15:29:01;7.93;;;3.28;;
58069;SDS011;43863;52.256;21.048;2022-07-12T15:34:00;8.27;;;3.78;;
58069;SDS011;43863;52.256;21.048;2022-07-12T15:36:29;11.85;;;3.60;;
58069;SDS011;43863;52.256;21.048;2022-07-12T15:38:58;14.95;;;4.53;;
58069;SDS011;43863;52.256;21.048;2022-07-12T15:41:29;8.43;;;3.47;;
58069;SDS011;43863;52.256;21.048;2022-07-12T15:44:01;7.68;;;3.30;;
58069;SDS011;43863;52.256;21.048;2022-07-12T15:46:31;10.23;;;3.10;;
58069;SDS011;43863;52.256;21.048;2022-07-12T15:48:59;6.50;;;3.03;;
58069;SDS011;43863;52.256;21.048;2022-07-12T15:51:27;12.45;;;4.60;;
58069;SDS011;43863;52.256;21.048;2022-07-12T15:54:14;6.82;;;3.60;;
58069;SDS011;43863;52.256;21.048;2022-07-12T15:56:49;5.38;;;2.95;;
58069;SDS011;43863;52.256;21.048;2022-07-12T15:59:24;6.07;;;3.30;;
58069;SDS011;43863;52.256;21.048;2022-07-12T16:01:51;6.07;;;3.00;;